createdAt,value
2019-04-29T00:00:51.259Z,3.33
2019-04-29T00:01:27.894Z,3.53
2019-04-29T00:02:03.836Z,3.80
2019-04-29T00:02:39.759Z,5.03
2019-04-29T00:03:15.421Z,7.10
2019-04-29T00:03:50.848Z,5.03
2019-04-29T00:04:26.329Z,3.20
2019-04-29T00:05:02.174Z,3.40
2019-04-29T00:05:38.220Z,5.13
2019-04-29T00:06:13.651Z,4.23
2019-04-29T00:06:49.551Z,3.47
2019-04-29T00:07:25.479Z,3.80
2019-04-29T00:08:00.959Z,5.30
2019-04-29T00:08:36.545Z,4.13
2019-04-29T00:09:16.651Z,3.70
2019-04-29T00:09:52.077Z,4.47
2019-04-29T00:10:27.693Z,4.77
2019-04-29T00:11:03.865Z,3.77
2019-04-29T00:11:39.538Z,5.93
2019-04-29T00:12:15.346Z,4.40
2019-04-29T00:12:50.829Z,7.33
2019-04-29T00:13:26.669Z,4.57
2019-04-29T00:14:02.583Z,4.63
2019-04-29T00:14:39.333Z,3.60
2019-04-29T00:15:28.733Z,4.80
2019-04-29T00:16:20.660Z,3.60
2019-04-29T00:17:06.197Z,3.03
2019-04-29T00:17:48.931Z,4.90
2019-04-29T00:18:30.270Z,5.80
2019-04-29T00:19:37.768Z,4.30
2019-04-29T00:20:34.986Z,3.83
2019-04-29T00:21:10.797Z,4.10
2019-04-29T00:21:46.572Z,4.33
2019-04-29T00:22:23.394Z,3.57
2019-04-29T00:22:59.876Z,4.97
2019-04-29T00:23:35.956Z,4.37
2019-04-29T00:24:11.631Z,3.67
2019-04-29T00:24:47.705Z,4.57
2019-04-29T00:25:23.360Z,4.50
2019-04-29T00:25:59.143Z,6.10
2019-04-29T00:26:35.959Z,5.30
2019-04-29T00:27:11.948Z,4.23
2019-04-29T00:27:47.463Z,4.77
2019-04-29T00:28:23.491Z,5.80
2019-04-29T00:28:59.150Z,5.23
2019-04-29T00:29:35.053Z,6.10
2019-04-29T00:30:15.906Z,6.93
2019-04-29T00:30:51.782Z,7.50
2019-04-29T00:31:27.661Z,5.07
2019-04-29T00:32:04.281Z,6.60
2019-04-29T00:32:40.347Z,4.83
2019-04-29T00:33:16.506Z,4.07
2019-04-29T00:33:52.208Z,4.30
2019-04-29T00:34:28.152Z,4.57
2019-04-29T00:35:04.619Z,5.13
2019-04-29T00:35:40.047Z,5.20
2019-04-29T00:36:16.267Z,4.83
2019-04-29T00:37:08.723Z,6.40
2019-04-29T00:38:10.174Z,4.10
2019-04-29T00:39:04.872Z,5.23
2019-04-29T00:39:57.991Z,6.90
2019-04-29T00:40:55.467Z,5.27
2019-04-29T00:41:58.848Z,4.87
2019-04-29T00:42:54.051Z,4.23
2019-04-29T00:43:52.019Z,4.13
2019-04-29T00:44:27.466Z,4.80
2019-04-29T00:45:02.915Z,5.23
2019-04-29T00:45:39.050Z,4.87
2019-04-29T00:46:14.542Z,4.80
2019-04-29T00:46:49.978Z,5.23
2019-04-29T00:47:25.423Z,5.83
2019-04-29T00:48:00.990Z,5.53
2019-04-29T00:48:36.479Z,5.27
2019-04-29T00:49:12.366Z,4.60
2019-04-29T00:49:47.797Z,5.60
2019-04-29T00:50:23.225Z,7.87
2019-04-29T00:50:59.086Z,5.50
2019-04-29T00:51:34.961Z,6.30
2019-04-29T00:52:11.064Z,5.23
2019-04-29T00:52:47.236Z,5.33
2019-04-29T00:53:22.702Z,6.20
2019-04-29T00:54:03.414Z,10.07
2019-04-29T00:54:47.334Z,5.30
2019-04-29T00:55:25.273Z,5.80
2019-04-29T00:56:02.491Z,5.53
2019-04-29T00:56:38.022Z,5.17
2019-04-29T00:57:13.796Z,6.40
2019-04-29T00:57:49.246Z,7.97
2019-04-29T00:58:24.706Z,6.93
2019-04-29T00:59:00.182Z,5.77
2019-04-29T00:59:35.604Z,5.43
2019-04-29T01:00:14.542Z,4.80
2019-04-29T01:00:50.384Z,6.07
2019-04-29T01:01:26.553Z,6.20
2019-04-29T01:02:02.017Z,6.67
2019-04-29T01:02:37.863Z,6.10
2019-04-29T01:03:13.577Z,6.80
2019-04-29T01:03:49.035Z,6.07
2019-04-29T01:04:24.725Z,5.00
2019-04-29T01:05:00.471Z,7.90
2019-04-29T01:05:36.412Z,5.43
2019-04-29T01:06:12.048Z,6.43
2019-04-29T01:06:47.491Z,5.30
2019-04-29T01:07:22.924Z,7.03
2019-04-29T01:07:58.726Z,5.20
2019-04-29T01:08:34.665Z,5.80
2019-04-29T01:09:14.232Z,5.67
2019-04-29T01:09:49.993Z,6.10
2019-04-29T01:10:25.718Z,6.07
2019-04-29T01:11:01.175Z,7.67
2019-04-29T01:11:36.654Z,8.20
2019-04-29T01:12:12.152Z,5.83
2019-04-29T01:12:47.633Z,5.47
2019-04-29T01:13:23.064Z,5.40
2019-04-29T01:13:58.869Z,5.43
2019-04-29T01:14:34.342Z,6.53
2019-04-29T01:15:09.767Z,6.63
2019-04-29T01:15:45.218Z,5.00
2019-04-29T01:16:21.024Z,7.77
2019-04-29T01:16:56.938Z,7.13
2019-04-29T01:17:32.381Z,7.30
2019-04-29T01:18:07.967Z,6.90
2019-04-29T01:18:43.429Z,5.63
2019-04-29T01:19:18.850Z,5.00
2019-04-29T01:19:54.301Z,6.63
2019-04-29T01:20:30.148Z,6.40
2019-04-29T01:21:05.599Z,6.97
2019-04-29T01:21:41.024Z,5.33
2019-04-29T01:22:16.754Z,5.73
2019-04-29T01:22:52.181Z,6.40
2019-04-29T01:23:28.602Z,5.13
2019-04-29T01:24:04.155Z,5.77
2019-04-29T01:24:39.603Z,6.17
2019-04-29T01:25:15.045Z,5.17
2019-04-29T01:25:54.560Z,6.00
2019-04-29T01:26:47.942Z,7.70
2019-04-29T01:27:27.894Z,7.17
2019-04-29T01:28:13.782Z,7.07
2019-04-29T01:28:52.335Z,5.40
2019-04-29T01:29:28.263Z,5.40
2019-04-29T01:30:04.986Z,7.33
2019-04-29T01:31:30.786Z,5.53
2019-04-29T01:32:07.449Z,6.77
2019-04-29T01:32:43.182Z,7.07
2019-04-29T01:33:18.599Z,7.27
2019-04-29T01:33:58.044Z,6.83
2019-04-29T01:34:39.841Z,5.57
2019-04-29T01:35:15.278Z,6.20
2019-04-29T01:35:52.370Z,7.53
2019-04-29T01:36:35.685Z,6.40
2019-04-29T01:37:11.549Z,6.57
2019-04-29T01:37:46.993Z,8.10
2019-04-29T01:38:22.765Z,5.53
2019-04-29T01:39:00.220Z,6.00
2019-04-29T01:39:51.386Z,6.07
2019-04-29T01:40:52.282Z,5.63
2019-04-29T01:41:30.063Z,7.23
2019-04-29T01:42:26.923Z,6.67
2019-04-29T01:43:02.388Z,7.43
2019-04-29T01:43:56.115Z,9.07
2019-04-29T01:44:33.696Z,7.97
2019-04-29T01:45:09.155Z,9.70
2019-04-29T01:45:44.723Z,9.00
2019-04-29T01:46:21.122Z,10.60
2019-04-29T01:46:56.974Z,9.87
2019-04-29T01:47:32.448Z,7.83
2019-04-29T01:48:07.935Z,9.00
2019-04-29T01:48:43.378Z,8.17
2019-04-29T01:49:19.063Z,9.50
2019-04-29T01:49:54.503Z,9.20
2019-04-29T01:50:30.300Z,7.40
2019-04-29T01:51:06.137Z,6.83
2019-04-29T01:51:41.569Z,7.93
2019-04-29T01:52:17.000Z,7.77
2019-04-29T01:52:52.469Z,6.77
2019-04-29T01:53:27.985Z,8.53
2019-04-29T01:54:04.253Z,7.20
2019-04-29T01:54:39.911Z,8.07
2019-04-29T01:55:15.380Z,6.80
2019-04-29T01:55:50.824Z,8.30
2019-04-29T01:56:26.276Z,6.80
2019-04-29T01:57:01.833Z,6.57
2019-04-29T01:57:38.084Z,7.90
2019-04-29T01:58:13.802Z,6.47
2019-04-29T01:58:49.259Z,7.33
2019-04-29T01:59:24.725Z,6.47
2019-04-29T02:00:00.507Z,7.10
2019-04-29T02:00:35.973Z,9.63
2019-04-29T02:01:11.890Z,7.50
2019-04-29T02:01:47.445Z,6.57
2019-04-29T02:02:23.222Z,6.20
2019-04-29T02:02:59.045Z,6.40
2019-04-29T02:03:34.661Z,12.43
2019-04-29T02:04:10.336Z,7.57
2019-04-29T02:04:46.001Z,7.80
2019-04-29T02:05:21.437Z,7.27
2019-04-29T02:05:57.216Z,6.83
2019-04-29T02:06:32.701Z,8.83
2019-04-29T02:07:08.480Z,8.30
2019-04-29T02:07:43.946Z,7.07
2019-04-29T02:08:19.751Z,8.10
2019-04-29T02:08:56.137Z,6.87
2019-04-29T02:09:42.922Z,6.67
2019-04-29T02:10:29.683Z,10.40
2019-04-29T02:11:05.159Z,7.43
2019-04-29T02:11:41.215Z,6.90
2019-04-29T02:12:16.935Z,8.37
2019-04-29T02:12:52.409Z,7.57
2019-04-29T02:13:27.874Z,7.63
2019-04-29T02:14:03.678Z,6.70
2019-04-29T02:14:39.126Z,7.13
2019-04-29T02:15:15.528Z,8.63
2019-04-29T02:15:50.974Z,6.50
2019-04-29T02:16:26.404Z,8.60
2019-04-29T02:17:02.382Z,8.67
2019-04-29T02:17:37.866Z,8.90
2019-04-29T02:18:13.313Z,10.47
2019-04-29T02:18:48.780Z,9.60
2019-04-29T02:19:24.314Z,7.67
2019-04-29T02:19:59.789Z,9.80
2019-04-29T02:20:35.574Z,9.97
2019-04-29T02:21:11.017Z,8.20
2019-04-29T02:22:05.536Z,6.60
2019-04-29T02:22:46.182Z,6.60
2019-04-29T02:23:26.856Z,7.13
2019-04-29T02:24:15.788Z,9.27
2019-04-29T02:24:55.795Z,9.10
2019-04-29T02:25:35.667Z,9.73
2019-04-29T02:26:11.137Z,9.13
2019-04-29T02:26:46.907Z,9.57
2019-04-29T02:27:22.333Z,9.00
2019-04-29T02:27:57.758Z,7.90
2019-04-29T02:28:33.272Z,7.60
2019-04-29T02:29:08.781Z,9.07
2019-04-29T02:29:44.231Z,8.50
2019-04-29T02:30:40.290Z,8.27
2019-04-29T02:31:33.765Z,9.20
2019-04-29T02:32:09.291Z,12.73
2019-04-29T02:32:44.765Z,9.87
2019-04-29T02:33:20.296Z,9.13
2019-04-29T02:33:55.753Z,8.43
2019-04-29T02:34:31.266Z,11.67
2019-04-29T02:35:07.797Z,8.60
2019-04-29T02:35:43.904Z,9.23
2019-04-29T02:36:19.291Z,9.13
2019-04-29T02:36:54.727Z,8.93
2019-04-29T02:37:33.954Z,10.00
2019-04-29T02:38:13.053Z,11.50
2019-04-29T02:39:07.488Z,10.40
2019-04-29T02:40:07.854Z,10.43
2019-04-29T02:40:56.905Z,10.93
2019-04-29T02:41:40.115Z,12.63
2019-04-29T02:42:33.864Z,9.37
2019-04-29T02:43:14.395Z,9.13
2019-04-29T02:43:51.327Z,10.23
2019-04-29T02:44:26.747Z,10.07
2019-04-29T02:45:06.828Z,9.20
2019-04-29T02:45:42.950Z,13.47
2019-04-29T02:46:18.410Z,10.03
2019-04-29T02:46:53.867Z,11.93
2019-04-29T02:47:29.305Z,10.60
2019-04-29T02:48:05.382Z,10.80
2019-04-29T02:48:40.877Z,12.10
2019-04-29T02:49:16.341Z,10.63
2019-04-29T02:49:51.767Z,10.20
2019-04-29T02:50:27.231Z,9.77
2019-04-29T02:51:03.166Z,11.40
2019-04-29T02:51:50.856Z,12.57
2019-04-29T02:52:26.635Z,11.87
2019-04-29T02:53:02.131Z,11.87
2019-04-29T02:53:37.652Z,10.70
2019-04-29T02:54:13.210Z,12.43
2019-04-29T02:54:48.742Z,10.30
2019-04-29T02:55:29.574Z,10.87
2019-04-29T02:56:05.086Z,10.60
2019-04-29T02:56:42.567Z,11.90
2019-04-29T02:57:30.619Z,10.40
2019-04-29T02:58:25.067Z,11.53
2019-04-29T02:59:03.881Z,10.13
2019-04-29T02:59:42.785Z,14.67
2019-04-29T03:00:30.119Z,12.27
2019-04-29T03:01:24.823Z,14.47
2019-04-29T03:02:19.430Z,10.50
2019-04-29T03:03:04.450Z,13.43
2019-04-29T03:04:05.463Z,16.77
2019-04-29T03:05:00.023Z,11.17
2019-04-29T03:05:41.666Z,13.23
2019-04-29T03:06:17.579Z,12.00
2019-04-29T03:06:53.513Z,11.43
2019-04-29T03:07:29.073Z,11.23
2019-04-29T03:08:05.024Z,11.40
2019-04-29T03:08:40.940Z,12.40
2019-04-29T03:09:17.175Z,13.50
2019-04-29T03:09:52.620Z,15.57
2019-04-29T03:10:28.097Z,14.27
2019-04-29T03:11:03.602Z,14.57
2019-04-29T03:11:39.193Z,14.10
2019-04-29T03:12:14.756Z,12.97
2019-04-29T03:12:50.198Z,14.43
2019-04-29T03:13:25.666Z,14.93
2019-04-29T03:14:01.234Z,14.60
2019-04-29T03:14:36.695Z,13.17
2019-04-29T03:15:12.627Z,13.70
2019-04-29T03:15:48.088Z,13.67
2019-04-29T03:16:24.317Z,13.40
2019-04-29T03:17:00.183Z,13.30
2019-04-29T03:17:36.665Z,14.00
2019-04-29T03:18:12.161Z,15.73
2019-04-29T03:18:52.180Z,14.37
2019-04-29T03:19:32.765Z,15.67
2019-04-29T03:20:20.534Z,15.03
2019-04-29T03:21:03.207Z,13.17
2019-04-29T03:21:59.144Z,12.83
2019-04-29T03:22:34.922Z,14.10
2019-04-29T03:23:12.573Z,15.63
2019-04-29T03:23:48.061Z,13.30
2019-04-29T03:24:23.525Z,17.47
2019-04-29T03:24:59.008Z,19.70
2019-04-29T03:25:34.655Z,14.33
2019-04-29T03:26:10.441Z,15.37
2019-04-29T03:26:46.214Z,17.10
2019-04-29T03:27:21.774Z,15.90
2019-04-29T03:27:57.212Z,14.77
2019-04-29T03:28:35.121Z,17.43
2019-04-29T03:29:22.193Z,15.57
2019-04-29T03:29:57.653Z,15.83
2019-04-29T03:30:33.179Z,16.27
2019-04-29T03:31:09.214Z,16.10
2019-04-29T03:31:45.094Z,16.57
2019-04-29T03:32:20.565Z,15.30
2019-04-29T03:32:56.316Z,14.73
2019-04-29T03:33:32.791Z,16.43
2019-04-29T03:34:08.349Z,15.13
2019-04-29T03:34:43.826Z,18.80
2019-04-29T03:35:19.616Z,18.50
2019-04-29T03:35:55.472Z,15.47
2019-04-29T03:36:31.313Z,16.17
2019-04-29T03:37:07.115Z,16.83
2019-04-29T03:37:42.587Z,17.37
2019-04-29T03:38:18.474Z,17.20
2019-04-29T03:38:53.938Z,20.30
2019-04-29T03:39:29.405Z,17.03
2019-04-29T03:40:07.799Z,17.63
2019-04-29T03:40:43.276Z,15.63
2019-04-29T03:41:19.131Z,17.33
2019-04-29T03:41:54.576Z,16.80
2019-04-29T03:42:30.092Z,16.60
2019-04-29T03:43:05.589Z,15.83
2019-04-29T03:43:41.807Z,17.00
2019-04-29T03:44:17.697Z,16.50
2019-04-29T03:44:53.139Z,19.53
2019-04-29T03:45:28.590Z,15.77
2019-04-29T03:46:04.074Z,16.30
2019-04-29T03:46:39.686Z,16.47
2019-04-29T03:47:18.765Z,16.70
2019-04-29T03:47:52.513Z,16.43
2019-04-29T03:48:27.950Z,16.93
2019-04-29T03:49:03.480Z,16.90
2019-04-29T03:49:39.033Z,16.43
2019-04-29T03:50:14.509Z,16.57
2019-04-29T03:50:49.959Z,15.97
2019-04-29T03:51:25.397Z,17.97
2019-04-29T03:52:01.754Z,16.53
2019-04-29T03:52:37.838Z,15.97
2019-04-29T03:53:13.655Z,15.97
2019-04-29T03:53:50.096Z,17.30
2019-04-29T03:54:25.561Z,17.47
2019-04-29T03:55:01.042Z,15.47
2019-04-29T03:55:39.860Z,16.13
2019-04-29T03:56:13.768Z,15.53
2019-04-29T03:56:49.214Z,15.10
2019-04-29T03:57:24.670Z,15.10
2019-04-29T03:58:00.141Z,16.37
2019-04-29T03:58:36.084Z,16.43
2019-04-29T03:59:11.567Z,16.77
2019-04-29T03:59:47.734Z,16.70
2019-04-29T04:00:23.605Z,15.87
2019-04-29T04:01:06.955Z,18.03
2019-04-29T04:01:50.109Z,16.03
2019-04-29T04:02:41.174Z,17.37
2019-04-29T04:03:51.080Z,16.93
2019-04-29T04:04:44.909Z,17.30
2019-04-29T04:05:39.330Z,16.93
2019-04-29T04:06:22.605Z,19.47
2019-04-29T04:07:17.043Z,19.27
2019-04-29T04:08:15.249Z,19.20
2019-04-29T04:09:06.201Z,17.77
2019-04-29T04:09:35.263Z,19.63
2019-04-29T04:10:10.832Z,19.97
2019-04-29T04:10:46.659Z,16.80
2019-04-29T04:11:22.761Z,19.87
2019-04-29T04:11:58.244Z,26.07
2019-04-29T04:12:34.073Z,18.13
2019-04-29T04:13:09.550Z,19.57
2019-04-29T04:13:44.999Z,18.73
2019-04-29T04:14:20.469Z,17.90
2019-04-29T04:14:56.051Z,19.37
2019-04-29T04:15:31.528Z,18.53
2019-04-29T04:16:09.732Z,18.40
2019-04-29T04:17:04.458Z,20.73
2019-04-29T04:17:44.208Z,18.30
2019-04-29T04:18:25.886Z,19.30
2019-04-29T04:19:09.353Z,22.70
2019-04-29T04:19:45.081Z,18.07
2019-04-29T04:20:20.835Z,19.10
2019-04-29T04:20:56.308Z,20.83
2019-04-29T04:21:32.424Z,20.20
2019-04-29T04:22:08.344Z,17.97
2019-04-29T04:22:47.285Z,20.27
2019-04-29T04:23:22.791Z,18.07
2019-04-29T04:23:58.402Z,19.33
2019-04-29T04:24:33.941Z,18.77
2019-04-29T04:25:09.435Z,18.70
2019-04-29T04:25:44.903Z,21.27
2019-04-29T04:26:20.350Z,20.57
2019-04-29T04:26:55.806Z,19.50
2019-04-29T04:27:31.608Z,18.37
2019-04-29T04:28:07.072Z,19.20
2019-04-29T04:28:42.835Z,18.90
2019-04-29T04:29:18.271Z,18.53
2019-04-29T04:29:54.419Z,19.70
2019-04-29T04:30:29.961Z,22.33
2019-04-29T04:31:06.988Z,19.13
2019-04-29T04:31:42.801Z,19.97
2019-04-29T04:32:18.256Z,19.47
2019-04-29T04:32:54.090Z,18.40
2019-04-29T04:33:29.568Z,17.73
2019-04-29T04:34:05.367Z,19.20
2019-04-29T04:34:40.836Z,18.50
2019-04-29T04:35:16.395Z,20.00
2019-04-29T04:35:52.138Z,19.30
2019-04-29T04:36:27.601Z,20.47
2019-04-29T04:37:03.080Z,19.33
2019-04-29T04:37:38.562Z,21.03
2019-04-29T04:38:14.049Z,18.17
2019-04-29T04:38:50.141Z,19.77
2019-04-29T04:39:27.657Z,20.57
2019-04-29T04:40:03.343Z,18.50
2019-04-29T04:40:43.189Z,18.03
2019-04-29T04:41:18.761Z,18.20
2019-04-29T04:41:54.196Z,19.87
2019-04-29T04:42:30.381Z,20.10
2019-04-29T04:43:06.158Z,18.93
2019-04-29T04:43:41.609Z,18.77
2019-04-29T04:44:17.324Z,19.70
2019-04-29T04:44:53.142Z,19.10
2019-04-29T04:45:28.955Z,18.20
2019-04-29T04:46:04.438Z,18.47
2019-04-29T04:46:39.878Z,18.50
2019-04-29T04:47:15.344Z,18.53
2019-04-29T04:47:50.819Z,20.83
2019-04-29T04:48:26.284Z,20.37
2019-04-29T04:49:01.868Z,17.93
2019-04-29T04:49:37.345Z,20.23
2019-04-29T04:50:13.054Z,18.50
2019-04-29T04:50:48.556Z,20.67
2019-04-29T04:51:24.006Z,19.17
2019-04-29T04:51:59.863Z,19.73
2019-04-29T04:52:35.761Z,18.30
2019-04-29T04:53:11.301Z,18.80
2019-04-29T04:53:47.151Z,17.07
2019-04-29T04:54:22.928Z,16.93
2019-04-29T04:54:58.396Z,17.87
2019-04-29T04:55:35.699Z,16.97
2019-04-29T04:56:11.254Z,18.30
2019-04-29T04:56:46.717Z,17.83
2019-04-29T04:57:22.520Z,17.80
2019-04-29T04:57:57.966Z,17.33
2019-04-29T04:58:33.552Z,18.30
2019-04-29T04:59:09.034Z,16.47
2019-04-29T04:59:45.487Z,15.73
2019-04-29T05:00:22.823Z,16.63
2019-04-29T05:00:58.643Z,17.50
2019-04-29T05:01:34.181Z,17.27
2019-04-29T05:02:09.629Z,18.23
2019-04-29T05:02:45.406Z,17.87
2019-04-29T05:03:20.952Z,18.37
2019-04-29T05:03:56.395Z,17.87
2019-04-29T05:04:32.631Z,17.60
2019-04-29T05:05:08.413Z,17.33
2019-04-29T05:05:44.252Z,16.37
2019-04-29T05:06:19.720Z,15.87
2019-04-29T05:06:55.489Z,16.90
2019-04-29T05:07:31.333Z,16.73
2019-04-29T05:08:06.793Z,17.13
2019-04-29T05:08:42.235Z,17.20
2019-04-29T05:09:18.052Z,16.10
2019-04-29T05:09:53.928Z,17.47
2019-04-29T05:10:29.846Z,17.70
2019-04-29T05:11:05.613Z,17.47
2019-04-29T05:11:41.436Z,17.20
2019-04-29T05:12:17.252Z,17.00
2019-04-29T05:12:52.714Z,18.10
2019-04-29T05:13:28.851Z,18.33
2019-04-29T05:14:04.644Z,15.77
2019-04-29T05:14:40.534Z,16.40
2019-04-29T05:15:16.271Z,17.00
2019-04-29T05:15:51.741Z,16.83
2019-04-29T05:16:27.842Z,17.03
2019-04-29T05:17:03.756Z,17.77
2019-04-29T05:17:39.643Z,17.37
2019-04-29T05:18:15.127Z,17.70
2019-04-29T05:18:50.578Z,17.63
2019-04-29T05:19:26.367Z,18.90
2019-04-29T05:20:02.105Z,18.20
2019-04-29T05:20:37.609Z,17.93
2019-04-29T05:21:13.365Z,19.00
2019-04-29T05:21:49.141Z,17.07
2019-04-29T05:22:25.030Z,16.83
2019-04-29T05:23:00.891Z,17.90
2019-04-29T05:23:36.657Z,16.97
2019-04-29T05:24:12.144Z,18.23
2019-04-29T05:24:48.344Z,18.00
2019-04-29T05:25:24.220Z,16.70
2019-04-29T05:25:59.703Z,17.27
2019-04-29T05:26:35.200Z,17.87
2019-04-29T05:27:10.664Z,17.30
2019-04-29T05:27:46.427Z,17.40
2019-04-29T05:28:22.180Z,17.43
2019-04-29T05:28:57.675Z,17.33
2019-04-29T05:29:33.480Z,17.70
2019-04-29T05:30:09.538Z,18.03
2019-04-29T05:30:45.015Z,17.97
2019-04-29T05:31:20.476Z,17.30
2019-04-29T05:31:55.922Z,16.70
2019-04-29T05:32:31.737Z,17.67
2019-04-29T05:33:07.240Z,17.73
2019-04-29T05:33:42.740Z,16.57
2019-04-29T05:34:18.579Z,16.80
2019-04-29T05:34:55.839Z,18.30
2019-04-29T05:35:56.762Z,17.00
2019-04-29T05:37:00.484Z,19.37
2019-04-29T05:37:56.768Z,15.63
2019-04-29T05:38:42.290Z,17.33
2019-04-29T05:39:43.130Z,16.07
2019-04-29T05:40:37.581Z,15.93
2019-04-29T05:41:13.260Z,16.00
2019-04-29T05:41:48.691Z,18.07
2019-04-29T05:42:24.130Z,17.63
2019-04-29T05:42:59.963Z,17.47
2019-04-29T05:43:41.737Z,17.63
2019-04-29T05:44:23.716Z,16.73
2019-04-29T05:45:06.098Z,16.10
2019-04-29T05:46:00.547Z,16.87
2019-04-29T05:47:10.728Z,16.97
2019-04-29T05:48:03.151Z,15.97
2019-04-29T05:48:39.017Z,16.00
2019-04-29T05:49:17.107Z,15.10
2019-04-29T05:50:11.772Z,16.20
2019-04-29T05:50:59.750Z,17.17
2019-04-29T05:51:50.137Z,15.73
2019-04-29T05:52:43.646Z,15.63
2019-04-29T05:53:25.541Z,14.37
2019-04-29T05:54:01.954Z,15.17
2019-04-29T05:54:37.430Z,15.47
2019-04-29T05:55:13.733Z,17.43
2019-04-29T05:55:52.563Z,14.30
2019-04-29T05:56:27.668Z,14.37
2019-04-29T05:57:03.465Z,15.73
2019-04-29T05:57:38.963Z,15.30
2019-04-29T05:58:14.824Z,14.03
2019-04-29T05:58:50.300Z,17.03
2019-04-29T05:59:26.478Z,15.23
2019-04-29T06:00:02.675Z,15.57
2019-04-29T06:00:38.577Z,14.93
2019-04-29T06:01:19.065Z,16.00
2019-04-29T06:01:54.865Z,14.97
2019-04-29T06:02:33.661Z,13.97
2019-04-29T06:03:07.918Z,14.43
2019-04-29T06:03:44.460Z,13.30
2019-04-29T06:04:20.540Z,16.00
2019-04-29T06:04:56.012Z,12.93
2019-04-29T06:05:31.492Z,13.17
2019-04-29T06:06:07.339Z,14.50
2019-04-29T06:06:43.150Z,14.40
2019-04-29T06:07:21.606Z,14.17
2019-04-29T06:08:01.083Z,13.67
2019-04-29T06:08:34.499Z,13.03
2019-04-29T06:09:16.604Z,12.37
2019-04-29T06:09:49.347Z,12.10
2019-04-29T06:10:24.889Z,12.67
2019-04-29T06:11:00.726Z,14.80
2019-04-29T06:11:36.927Z,12.80
2019-04-29T06:12:12.788Z,12.43
2019-04-29T06:12:48.274Z,12.50
2019-04-29T06:13:24.160Z,12.90
2019-04-29T06:13:59.987Z,14.23
2019-04-29T06:14:35.802Z,15.77
2019-04-29T06:15:11.402Z,12.63
2019-04-29T06:15:46.885Z,11.20
2019-04-29T06:16:22.846Z,12.37
2019-04-29T06:17:02.971Z,13.03
2019-04-29T06:17:40.082Z,13.30
2019-04-29T06:18:13.052Z,11.90
2019-04-29T06:18:48.616Z,14.07
2019-04-29T06:19:24.455Z,12.23
2019-04-29T06:20:00.277Z,11.90
2019-04-29T06:20:36.218Z,10.90
2019-04-29T06:21:12.246Z,10.60
2019-04-29T06:21:47.715Z,12.27
2019-04-29T06:22:23.267Z,12.43
2019-04-29T06:22:59.324Z,11.20
2019-04-29T06:23:34.766Z,12.60
2019-04-29T06:24:10.266Z,12.53
2019-04-29T06:24:45.734Z,15.60
2019-04-29T06:25:21.521Z,11.40
2019-04-29T06:25:56.975Z,12.60
2019-04-29T06:26:32.534Z,10.77
2019-04-29T06:27:08.952Z,12.33
2019-04-29T06:27:44.423Z,13.03
2019-04-29T06:28:21.642Z,12.73
2019-04-29T06:28:58.009Z,10.27
2019-04-29T06:29:33.477Z,12.60
2019-04-29T06:30:09.494Z,11.03
2019-04-29T06:30:50.245Z,12.70
2019-04-29T06:31:22.494Z,11.97
2019-04-29T06:31:58.044Z,10.17
2019-04-29T06:32:33.915Z,12.47
2019-04-29T06:33:09.379Z,11.40
2019-04-29T06:33:45.601Z,13.67
2019-04-29T06:34:21.509Z,13.70
2019-04-29T06:34:57.861Z,9.83
2019-04-29T06:35:33.354Z,13.13
2019-04-29T06:36:08.929Z,13.37
2019-04-29T06:36:44.420Z,12.57
2019-04-29T06:37:19.879Z,12.73
2019-04-29T06:37:55.738Z,11.07
2019-04-29T06:38:32.130Z,15.23
2019-04-29T06:39:08.262Z,10.23
2019-04-29T06:39:44.010Z,12.93
2019-04-29T06:40:19.451Z,11.80
2019-04-29T06:40:54.999Z,10.83
2019-04-29T06:41:30.484Z,10.63
2019-04-29T06:42:06.352Z,12.37
2019-04-29T06:42:41.851Z,10.03
2019-04-29T06:43:17.291Z,11.73
2019-04-29T06:43:55.891Z,11.07
2019-04-29T06:44:29.906Z,13.43
2019-04-29T06:45:05.880Z,11.13
2019-04-29T06:45:41.378Z,10.80
2019-04-29T06:46:16.820Z,11.33
2019-04-29T06:46:54.587Z,10.60
2019-04-29T06:47:29.778Z,15.20
2019-04-29T06:48:05.515Z,10.27
2019-04-29T06:48:41.346Z,11.47
2019-04-29T06:49:16.824Z,17.10
2019-04-29T06:49:52.310Z,11.07
2019-04-29T06:50:28.087Z,12.57
2019-04-29T06:51:03.598Z,12.23
2019-04-29T06:51:39.126Z,11.93
2019-04-29T06:52:15.010Z,12.20
2019-04-29T06:52:50.488Z,11.70
2019-04-29T06:53:26.146Z,12.23
2019-04-29T06:54:02.308Z,9.23
2019-04-29T06:54:40.002Z,11.27
2019-04-29T06:55:15.474Z,9.07
2019-04-29T06:55:50.948Z,13.80
2019-04-29T06:56:26.692Z,13.33
2019-04-29T06:57:02.201Z,13.53
2019-04-29T06:57:37.699Z,10.80
2019-04-29T06:58:13.209Z,12.93
2019-04-29T06:58:49.139Z,12.00
2019-04-29T06:59:24.805Z,9.17
2019-04-29T07:00:00.321Z,10.63
2019-04-29T07:00:35.794Z,9.90
2019-04-29T07:01:11.924Z,9.57
2019-04-29T07:01:47.420Z,10.17
2019-04-29T07:02:23.268Z,9.27
2019-04-29T07:02:58.729Z,9.57
2019-04-29T07:03:34.675Z,10.20
2019-04-29T07:04:10.696Z,9.57
2019-04-29T07:04:46.859Z,10.13
2019-04-29T07:05:22.817Z,9.80
2019-04-29T07:05:58.699Z,10.17
2019-04-29T07:06:34.349Z,9.73
2019-04-29T07:07:09.827Z,10.50
2019-04-29T07:07:45.285Z,12.03
2019-04-29T07:08:20.977Z,9.20
2019-04-29T07:08:56.449Z,10.13
2019-04-29T07:09:32.394Z,10.53
2019-04-29T07:10:07.925Z,11.53
2019-04-29T07:10:43.694Z,10.80
2019-04-29T07:11:19.188Z,10.80
2019-04-29T07:12:01.066Z,9.07
2019-04-29T07:12:31.837Z,9.90
2019-04-29T07:13:08.173Z,10.37
2019-04-29T07:13:46.576Z,10.40
2019-04-29T07:14:21.494Z,11.43
2019-04-29T07:14:57.636Z,9.43
2019-04-29T07:15:33.541Z,11.93
2019-04-29T07:16:09.036Z,11.03
2019-04-29T07:16:44.752Z,9.50
2019-04-29T07:17:20.218Z,13.83
2019-04-29T07:17:55.652Z,9.93
2019-04-29T07:18:31.378Z,9.37
2019-04-29T07:19:08.124Z,9.93
2019-04-29T07:19:43.896Z,11.27
2019-04-29T07:20:19.352Z,11.07
2019-04-29T07:20:54.815Z,10.17
2019-04-29T07:21:30.661Z,10.17
2019-04-29T07:22:06.415Z,10.20
2019-04-29T07:22:42.294Z,12.33
2019-04-29T07:23:17.755Z,9.90
2019-04-29T07:23:53.209Z,10.13
2019-04-29T07:24:28.650Z,9.43
2019-04-29T07:25:04.469Z,10.33
2019-04-29T07:25:40.684Z,9.57
2019-04-29T07:26:16.127Z,9.73
2019-04-29T07:26:51.934Z,9.40
2019-04-29T07:27:27.391Z,12.53
2019-04-29T07:28:02.867Z,9.83
2019-04-29T07:28:38.464Z,13.53
2019-04-29T07:29:13.955Z,9.40
2019-04-29T07:29:49.420Z,9.90
2019-04-29T07:30:25.672Z,9.27
2019-04-29T07:31:03.093Z,8.73
2019-04-29T07:31:39.220Z,9.43
2019-04-29T07:32:15.063Z,10.70
2019-04-29T07:32:50.508Z,10.03
2019-04-29T07:33:25.953Z,10.60
2019-04-29T07:34:01.571Z,9.83
2019-04-29T07:34:39.553Z,9.43
2019-04-29T07:35:15.179Z,11.30
2019-04-29T07:35:50.653Z,11.27
2019-04-29T07:36:26.772Z,11.97
2019-04-29T07:37:02.248Z,11.13
2019-04-29T07:37:37.756Z,12.13
2019-04-29T07:38:13.235Z,8.57
2019-04-29T07:38:51.288Z,9.03
2019-04-29T07:39:26.844Z,10.10
2019-04-29T07:40:03.721Z,9.93
2019-04-29T07:40:43.271Z,10.37
2019-04-29T07:41:19.027Z,10.37
2019-04-29T07:41:55.300Z,11.63
2019-04-29T07:42:33.224Z,8.90
2019-04-29T07:43:09.592Z,9.03
2019-04-29T07:43:45.175Z,9.53
2019-04-29T07:44:20.654Z,9.37
2019-04-29T07:45:43.691Z,10.10
2019-04-29T07:46:25.893Z,11.63
2019-04-29T07:47:02.498Z,9.47
2019-04-29T07:47:38.640Z,8.83
2019-04-29T07:48:14.081Z,12.43
2019-04-29T07:49:00.779Z,9.00
2019-04-29T07:49:27.880Z,11.73
2019-04-29T07:50:03.465Z,8.60
2019-04-29T07:50:38.972Z,11.73
2019-04-29T07:51:14.443Z,8.60
2019-04-29T07:51:50.197Z,8.23
2019-04-29T07:52:25.922Z,9.90
2019-04-29T07:53:01.753Z,11.40
2019-04-29T07:53:44.836Z,9.97
2019-04-29T07:54:16.029Z,8.00
2019-04-29T07:54:56.047Z,8.63
2019-04-29T07:55:31.053Z,8.43
2019-04-29T07:56:08.327Z,9.87
2019-04-29T07:56:43.826Z,8.33
2019-04-29T07:57:19.319Z,10.07
2019-04-29T07:57:55.285Z,7.93
2019-04-29T07:58:30.761Z,8.83
2019-04-29T07:59:06.767Z,7.93
2019-04-29T07:59:42.248Z,7.53
2019-04-29T08:00:19.482Z,8.53
2019-04-29T08:00:56.398Z,8.43
2019-04-29T08:01:32.440Z,8.80
2019-04-29T08:02:07.973Z,9.07
2019-04-29T08:02:43.427Z,8.50
2019-04-29T08:03:19.200Z,9.67
2019-04-29T08:03:55.393Z,8.87
2019-04-29T08:04:30.825Z,9.67
2019-04-29T08:05:06.807Z,8.07
2019-04-29T08:05:43.289Z,12.40
2019-04-29T08:06:19.334Z,7.43
2019-04-29T08:06:55.574Z,8.50
2019-04-29T08:07:31.690Z,8.90
2019-04-29T08:08:07.627Z,8.60
2019-04-29T08:08:54.365Z,9.50
2019-04-29T08:09:20.721Z,10.30
2019-04-29T08:09:56.562Z,10.13
2019-04-29T08:10:33.875Z,8.07
2019-04-29T08:11:09.768Z,9.63
2019-04-29T08:11:45.623Z,9.37
2019-04-29T08:12:23.199Z,8.50